createdAt,value
2019-01-02T00:00:56.820Z,10.10
2019-01-02T00:01:56.773Z,11.30
2019-01-02T00:02:56.744Z,8.80
2019-01-02T00:03:56.704Z,11.90
2019-01-02T00:04:56.667Z,10.60
2019-01-02T00:05:56.594Z,10.10
2019-01-02T00:06:56.546Z,11.00
2019-01-02T00:07:56.511Z,11.50
2019-01-02T00:08:56.451Z,11.40
2019-01-02T00:09:56.446Z,11.30
2019-01-02T00:10:56.377Z,10.60
2019-01-02T00:11:56.334Z,13.90
2019-01-02T00:12:56.318Z,9.10
2019-01-02T00:13:56.244Z,12.70
2019-01-02T00:14:56.195Z,13.00
2019-01-02T00:15:56.158Z,12.50
2019-01-02T00:16:56.114Z,14.10
2019-01-02T00:17:56.065Z,12.00
2019-01-02T00:18:56.040Z,11.50
2019-01-02T00:19:56.012Z,8.50
2019-01-02T00:20:55.937Z,12.10
2019-01-02T00:21:56.738Z,11.80
2019-01-02T00:22:55.864Z,13.70
2019-01-02T00:23:55.810Z,12.60
2019-01-02T00:24:55.747Z,12.70
2019-01-02T00:25:55.706Z,10.50
2019-01-02T00:26:55.652Z,11.70
2019-01-02T00:27:55.614Z,15.80
2019-01-02T00:28:55.576Z,13.20
2019-01-02T00:29:55.523Z,10.70
2019-01-02T00:30:55.555Z,14.40
2019-01-02T00:31:55.441Z,15.80
2019-01-02T00:32:55.409Z,14.10
2019-01-02T00:33:55.344Z,11.60
2019-01-02T00:34:55.311Z,16.50
2019-01-02T00:35:55.288Z,12.80
2019-01-02T00:36:55.221Z,14.40
2019-01-02T00:37:55.166Z,15.90
2019-01-02T00:38:55.112Z,12.60
2019-01-02T00:39:55.085Z,15.30
2019-01-02T00:40:55.060Z,14.40
2019-01-02T00:41:54.992Z,14.70
2019-01-02T00:42:54.983Z,14.10
2019-01-02T00:43:54.905Z,15.90
2019-01-02T00:44:54.860Z,15.00
2019-01-02T00:45:54.841Z,13.80
2019-01-02T00:46:54.769Z,16.50
2019-01-02T00:47:54.721Z,20.10
2019-01-02T00:48:54.712Z,14.80
2019-01-02T00:49:54.642Z,16.20
2019-01-02T00:50:54.600Z,17.80
2019-01-02T00:51:54.588Z,18.80
2019-01-02T00:52:54.505Z,15.50
2019-01-02T00:53:54.473Z,14.80
2019-01-02T00:54:54.400Z,20.10
2019-01-02T00:55:54.368Z,17.70
2019-01-02T00:56:54.324Z,16.50
2019-01-02T00:57:54.274Z,14.10
2019-01-02T00:58:54.223Z,15.00
2019-01-02T00:59:54.198Z,15.70
2019-01-02T01:00:54.136Z,12.90
2019-01-02T01:01:54.098Z,15.20
2019-01-02T01:02:54.060Z,19.00
2019-01-02T01:03:54.014Z,19.90
2019-01-02T01:04:53.977Z,15.80
2019-01-02T01:05:53.905Z,17.30
2019-01-02T01:06:53.870Z,14.60
2019-01-02T01:07:53.827Z,17.90
2019-01-02T01:08:53.780Z,14.50
2019-01-02T01:09:53.770Z,15.00
2019-01-02T01:10:53.717Z,18.80
2019-01-02T01:11:53.637Z,17.30
2019-01-02T01:12:53.624Z,18.80
2019-01-02T01:13:53.554Z,17.10
2019-01-02T01:14:53.512Z,15.00
2019-01-02T01:15:53.460Z,16.70
2019-01-02T01:16:53.418Z,19.10
2019-01-02T01:17:53.391Z,17.00
2019-01-02T01:18:53.328Z,15.20
2019-01-02T01:19:53.285Z,15.70
2019-01-02T01:20:53.236Z,15.10
2019-01-02T01:21:53.222Z,14.00
2019-01-02T01:22:53.153Z,13.60
2019-01-02T01:23:53.121Z,16.20
2019-01-02T01:24:53.106Z,13.30
2019-01-02T01:25:53.021Z,15.80
2019-01-02T01:26:52.985Z,15.30
2019-01-02T01:27:52.928Z,8.30
2019-01-02T01:28:52.881Z,16.60
2019-01-02T01:29:52.840Z,13.50
2019-01-02T01:30:52.796Z,12.10
2019-01-02T01:31:52.746Z,13.90
2019-01-02T01:32:52.762Z,18.20
2019-01-02T01:33:52.659Z,17.40
2019-01-02T01:34:52.629Z,15.40
2019-01-02T01:35:52.605Z,12.60
2019-01-02T01:36:52.529Z,14.70
2019-01-02T01:37:52.478Z,17.70
2019-01-02T01:38:52.450Z,15.10
2019-01-02T01:39:52.416Z,13.90
2019-01-02T01:40:52.386Z,15.50
2019-01-02T01:41:52.296Z,16.00
2019-01-02T01:42:52.270Z,15.30
2019-01-02T01:43:52.225Z,14.80
2019-01-02T01:44:52.175Z,15.00
2019-01-02T01:45:52.124Z,14.90
2019-01-02T01:46:52.092Z,18.00
2019-01-02T01:47:52.055Z,17.00
2019-01-02T01:48:51.997Z,16.10
2019-01-02T01:49:51.948Z,14.70
2019-01-02T01:50:51.902Z,16.30
2019-01-02T01:51:51.888Z,16.70
2019-01-02T01:52:51.885Z,15.50
2019-01-02T01:53:51.770Z,18.20
2019-01-02T01:54:51.722Z,13.40
2019-01-02T01:55:51.680Z,13.90
2019-01-02T01:56:51.644Z,18.50
2019-01-02T01:57:51.615Z,17.50
2019-01-02T01:58:51.543Z,20.10
2019-01-02T01:59:51.496Z,16.20
2019-01-02T02:00:51.468Z,17.60
2019-01-02T02:01:51.418Z,17.50
2019-01-02T02:02:51.375Z,15.10
2019-01-02T02:03:51.322Z,18.60
2019-01-02T02:04:51.301Z,16.30
2019-01-02T02:05:51.258Z,13.80
2019-01-02T02:06:51.204Z,16.90
2019-01-02T02:07:51.127Z,15.80
2019-01-02T02:08:51.121Z,13.30
2019-01-02T02:09:51.061Z,14.10
2019-01-02T02:10:51.013Z,17.80
2019-01-02T02:11:50.965Z,16.30
2019-01-02T02:12:50.918Z,12.50
2019-01-02T02:13:50.878Z,14.10
2019-01-02T02:14:50.830Z,18.10
2019-01-02T02:15:50.795Z,15.00
2019-01-02T02:16:50.754Z,15.60
2019-01-02T02:17:50.679Z,18.70
2019-01-02T02:18:50.669Z,15.10
2019-01-02T02:19:50.642Z,14.30
2019-01-02T02:20:50.575Z,16.70
2019-01-02T02:21:50.510Z,12.90
2019-01-02T02:22:50.481Z,15.30
2019-01-02T02:23:50.463Z,13.80
2019-01-02T02:24:50.386Z,15.70
2019-01-02T02:25:50.346Z,15.20
2019-01-02T02:26:50.291Z,16.40
2019-01-02T02:27:50.250Z,13.70
2019-01-02T02:28:50.217Z,18.10
2019-01-02T02:29:50.148Z,16.70
2019-01-02T02:30:50.129Z,15.30
2019-01-02T02:31:50.051Z,14.70
2019-01-02T02:32:50.037Z,17.50
2019-01-02T02:33:49.975Z,13.50
2019-01-02T02:34:49.949Z,16.60
2019-01-02T02:35:49.898Z,15.30
2019-01-02T02:36:49.855Z,14.10
2019-01-02T02:37:49.807Z,15.20
2019-01-02T02:38:49.766Z,16.90
2019-01-02T02:39:49.704Z,16.80
2019-01-02T02:40:49.684Z,14.30
2019-01-02T02:41:49.617Z,15.90
2019-01-02T02:42:49.572Z,15.90
2019-01-02T02:43:49.519Z,16.10
2019-01-02T02:44:49.488Z,16.30
2019-01-02T02:45:49.434Z,17.30
2019-01-02T02:46:49.390Z,15.50
2019-01-02T02:47:49.965Z,18.60
2019-01-02T02:48:49.305Z,14.90
2019-01-02T02:49:49.275Z,18.60
2019-01-02T02:50:49.225Z,19.40
2019-01-02T02:51:49.170Z,20.80
2019-01-02T02:52:49.144Z,18.90
2019-01-02T02:53:49.082Z,15.50
2019-01-02T02:54:49.069Z,18.60
2019-01-02T02:55:48.999Z,15.10
2019-01-02T02:56:48.964Z,16.20
2019-01-02T02:57:48.899Z,14.50
2019-01-02T02:58:48.877Z,12.70
2019-01-02T02:59:48.823Z,14.20
2019-01-02T03:00:48.794Z,13.50
2019-01-02T03:01:48.794Z,17.00
2019-01-02T03:02:48.803Z,14.50
2019-01-02T03:03:48.627Z,11.90
2019-01-02T03:04:48.636Z,15.40
2019-01-02T03:05:48.539Z,12.80
2019-01-02T03:06:49.563Z,13.10
2019-01-02T03:07:48.468Z,13.10
2019-01-02T03:08:48.433Z,13.20
2019-01-02T03:09:48.360Z,14.90
2019-01-02T03:10:48.328Z,17.40
2019-01-02T03:11:48.272Z,15.10
2019-01-02T03:12:48.257Z,15.30
2019-01-02T03:13:48.208Z,14.30
2019-01-02T03:14:48.178Z,13.00
2019-01-02T03:15:48.108Z,17.30
2019-01-02T03:16:48.061Z,14.70
2019-01-02T03:17:48.008Z,15.30
2019-01-02T03:18:47.984Z,15.50
2019-01-02T03:19:47.916Z,14.80
2019-01-02T03:20:47.876Z,17.60
2019-01-02T03:21:47.841Z,16.60
2019-01-02T03:22:47.820Z,11.70
2019-01-02T03:23:47.765Z,17.70
2019-01-02T03:24:47.720Z,17.50
2019-01-02T03:25:47.645Z,17.10
2019-01-02T03:26:47.611Z,13.30
2019-01-02T03:27:47.586Z,16.70
2019-01-02T03:28:47.541Z,16.10
2019-01-02T03:29:47.473Z,14.10
2019-01-02T03:30:47.457Z,13.10
2019-01-02T03:31:47.395Z,13.40
2019-01-02T03:32:47.339Z,15.40
2019-01-02T03:33:47.293Z,14.30
2019-01-02T03:34:47.260Z,11.80
2019-01-02T03:35:47.210Z,12.50
2019-01-02T03:36:47.189Z,14.10
2019-01-02T03:37:47.123Z,13.90
2019-01-02T03:38:47.088Z,20.20
2019-01-02T03:39:47.033Z,14.70
2019-01-02T03:40:46.987Z,17.50
2019-01-02T03:41:46.934Z,15.30
2019-01-02T03:42:46.898Z,17.90
2019-01-02T03:43:46.845Z,17.70
2019-01-02T03:44:46.816Z,16.70
2019-01-02T03:45:46.758Z,19.70
2019-01-02T03:46:46.719Z,14.50
2019-01-02T03:47:46.700Z,20.90
2019-01-02T03:48:46.632Z,17.20
2019-01-02T03:49:46.581Z,17.10
2019-01-02T03:50:46.541Z,20.10
2019-01-02T03:51:46.528Z,16.20
2019-01-02T03:52:46.461Z,21.20
2019-01-02T03:53:46.399Z,17.40
2019-01-02T03:54:46.370Z,18.20
2019-01-02T03:55:46.356Z,18.70
2019-01-02T03:56:46.311Z,17.70
2019-01-02T03:57:46.245Z,19.90
2019-01-02T03:58:46.193Z,17.60
2019-01-02T03:59:46.138Z,19.50
2019-01-02T04:00:46.125Z,13.20
2019-01-02T04:01:46.058Z,15.20
2019-01-02T04:02:46.016Z,15.80
2019-01-02T04:03:45.998Z,20.00
2019-01-02T04:04:45.924Z,18.40
2019-01-02T04:05:45.880Z,14.60
2019-01-02T04:06:45.837Z,17.90
2019-01-02T04:07:45.793Z,16.50
2019-01-02T04:08:45.747Z,16.20
2019-01-02T04:09:45.709Z,15.40
2019-01-02T04:10:45.674Z,15.80
2019-01-02T04:11:45.613Z,17.40
2019-01-02T04:12:45.563Z,16.00
2019-01-02T04:13:45.515Z,15.20
2019-01-02T04:14:45.479Z,21.40
2019-01-02T04:15:45.445Z,15.50
2019-01-02T04:16:45.403Z,17.40
2019-01-02T04:17:45.349Z,19.30
2019-01-02T04:18:45.322Z,20.80
2019-01-02T04:19:45.267Z,18.50
2019-01-02T04:20:45.213Z,16.20
2019-01-02T04:21:45.191Z,20.90
2019-01-02T04:22:45.121Z,18.20
2019-01-02T04:23:45.088Z,17.60
2019-01-02T04:24:45.048Z,15.80
2019-01-02T04:25:44.991Z,19.40
2019-01-02T04:26:44.950Z,19.40
2019-01-02T04:27:44.937Z,20.40
2019-01-02T04:28:44.874Z,18.50
2019-01-02T04:29:44.836Z,19.20
2019-01-02T04:30:44.787Z,18.60
2019-01-02T04:31:44.731Z,18.40
2019-01-02T04:32:44.699Z,19.90
2019-01-02T04:33:44.626Z,18.00
2019-01-02T04:34:44.601Z,16.10
2019-01-02T04:35:44.544Z,15.90
2019-01-02T04:36:44.512Z,15.90
2019-01-02T04:37:44.476Z,17.60
2019-01-02T04:38:44.433Z,19.10
2019-01-02T04:39:44.375Z,16.30
2019-01-02T04:40:44.344Z,18.10
2019-01-02T04:41:44.273Z,19.10
2019-01-02T04:42:44.265Z,17.00
2019-01-02T04:43:44.192Z,18.80
2019-01-02T04:44:44.156Z,18.00
2019-01-02T04:45:44.108Z,17.40
2019-01-02T04:46:44.046Z,15.00
2019-01-02T04:47:44.009Z,16.00
2019-01-02T04:48:43.957Z,18.70
2019-01-02T04:49:43.934Z,16.20
2019-01-02T04:50:43.924Z,16.00
2019-01-02T04:51:43.833Z,18.10
2019-01-02T04:52:43.804Z,18.00
2019-01-02T04:53:43.751Z,17.70
2019-01-02T04:54:43.692Z,19.90
2019-01-02T04:55:43.674Z,18.30
2019-01-02T04:56:43.615Z,18.30
2019-01-02T04:57:43.565Z,18.40
2019-01-02T04:58:43.527Z,16.70
2019-01-02T04:59:43.488Z,20.60
2019-01-02T05:00:43.441Z,17.70
2019-01-02T05:01:43.376Z,16.60
2019-01-02T05:02:43.334Z,16.60
2019-01-02T05:03:43.301Z,19.60
2019-01-02T05:04:43.266Z,16.40
2019-01-02T05:05:43.203Z,21.00
2019-01-02T05:06:43.159Z,20.90
2019-01-02T05:07:43.113Z,20.30
2019-01-02T05:08:43.066Z,19.30
2019-01-02T05:09:43.020Z,16.60
2019-01-02T05:10:42.980Z,18.80
2019-01-02T05:11:42.929Z,22.30
2019-01-02T05:12:42.887Z,19.70
2019-01-02T05:13:42.849Z,20.70
2019-01-02T05:14:42.803Z,20.50
2019-01-02T05:15:42.747Z,20.90
2019-01-02T05:16:42.711Z,22.60
2019-01-02T05:17:42.673Z,19.40
2019-01-02T05:18:42.634Z,16.90
2019-01-02T05:19:42.569Z,22.40
2019-01-02T05:20:42.516Z,20.00
2019-01-02T05:21:42.493Z,18.40
2019-01-02T05:22:42.454Z,19.10
2019-01-02T05:23:42.395Z,20.30
2019-01-02T05:24:42.337Z,19.80
2019-01-02T05:25:42.316Z,16.80
2019-01-02T05:26:42.301Z,19.70
2019-01-02T05:27:42.207Z,16.90
2019-01-02T05:28:42.162Z,18.40
2019-01-02T05:29:42.134Z,18.00
2019-01-02T05:30:42.090Z,21.10
2019-01-02T05:31:42.072Z,17.60
2019-01-02T05:32:42.030Z,18.30
2019-01-02T05:33:41.950Z,22.80
2019-01-02T05:34:41.905Z,20.00
2019-01-02T05:35:41.849Z,21.00
2019-01-02T05:36:41.822Z,21.40
2019-01-02T05:37:41.818Z,21.20
2019-01-02T05:38:41.747Z,20.70
2019-01-02T05:39:41.697Z,22.60
2019-01-02T05:40:41.620Z,19.20
2019-01-02T05:41:41.593Z,18.40
2019-01-02T05:42:41.567Z,22.60
2019-01-02T05:43:41.485Z,18.30
2019-01-02T05:44:41.502Z,18.50
2019-01-02T05:45:41.416Z,17.80
2019-01-02T05:46:41.371Z,23.10
2019-01-02T05:47:41.322Z,19.10
2019-01-02T05:48:41.292Z,18.70
2019-01-02T05:49:41.221Z,22.70
2019-01-02T05:50:41.195Z,20.30
2019-01-02T05:51:41.144Z,21.80
2019-01-02T05:52:41.104Z,20.20
2019-01-02T05:53:41.043Z,19.60
2019-01-02T05:54:41.013Z,17.90
2019-01-02T05:55:41.002Z,19.30
2019-01-02T05:56:40.935Z,23.40
2019-01-02T05:57:40.863Z,20.60
2019-01-02T05:58:40.828Z,21.60
2019-01-02T05:59:40.802Z,22.40
2019-01-02T06:00:40.720Z,18.30
2019-01-02T06:01:40.686Z,20.60
2019-01-02T06:02:40.637Z,16.90
2019-01-02T06:03:40.690Z,17.50
2019-01-02T06:04:40.564Z,19.60
2019-01-02T06:05:40.508Z,19.70
2019-01-02T06:06:40.469Z,18.00
2019-01-02T06:07:40.417Z,21.70
2019-01-02T06:08:40.396Z,22.50
2019-01-02T06:09:40.322Z,18.60
2019-01-02T06:10:40.302Z,22.40
2019-01-02T06:11:40.226Z,19.70
2019-01-02T06:12:40.185Z,19.90
2019-01-02T06:13:40.139Z,17.20
2019-01-02T06:14:40.101Z,18.10
2019-01-02T06:15:40.062Z,18.00
2019-01-02T06:16:40.020Z,16.30
2019-01-02T06:17:39.952Z,17.80
2019-01-02T06:18:39.922Z,17.00
2019-01-02T06:19:39.902Z,18.10
2019-01-02T06:20:39.851Z,17.80
2019-01-02T06:21:39.785Z,12.90
2019-01-02T06:22:39.741Z,22.50
2019-01-02T06:23:39.706Z,17.40
2019-01-02T06:24:39.638Z,19.10
2019-01-02T06:25:39.609Z,15.90
2019-01-02T06:26:39.567Z,18.80
2019-01-02T06:27:39.518Z,18.60
2019-01-02T06:28:39.484Z,18.20
2019-01-02T06:29:39.440Z,16.40
2019-01-02T06:30:39.380Z,20.00
2019-01-02T06:31:39.359Z,17.30
2019-01-02T06:32:39.304Z,20.70
2019-01-02T06:33:39.269Z,18.80
2019-01-02T06:34:39.211Z,20.00
2019-01-02T06:35:39.187Z,19.30
2019-01-02T06:36:39.125Z,16.90
2019-01-02T06:37:39.068Z,18.70
2019-01-02T06:38:39.024Z,20.20
2019-01-02T06:39:38.986Z,20.00
2019-01-02T06:40:38.925Z,19.70
2019-01-02T06:41:38.904Z,20.40
2019-01-02T06:42:38.863Z,19.30
2019-01-02T06:43:38.827Z,19.30
2019-01-02T06:44:38.758Z,19.10
2019-01-02T06:45:38.725Z,15.90
2019-01-02T06:46:38.688Z,17.50
2019-01-02T06:47:38.624Z,16.00
2019-01-02T06:48:38.580Z,17.90
2019-01-02T06:49:38.519Z,19.00
2019-01-02T06:50:38.477Z,18.40
2019-01-02T06:51:38.450Z,19.10
2019-01-02T06:52:38.397Z,15.40
2019-01-02T06:53:38.344Z,19.80
2019-01-02T06:54:38.302Z,20.60
2019-01-02T06:55:38.335Z,18.80
2019-01-02T06:56:38.223Z,14.70
2019-01-02T06:57:38.164Z,18.50
2019-01-02T06:58:38.121Z,15.70
2019-01-02T06:59:38.094Z,17.90
2019-01-02T07:00:38.032Z,19.00
2019-01-02T07:01:38.016Z,20.40
2019-01-02T07:02:37.963Z,17.30
2019-01-02T07:03:37.947Z,21.20
2019-01-02T07:04:37.866Z,21.20
2019-01-02T07:05:37.830Z,20.70
2019-01-02T07:06:37.782Z,17.20
2019-01-02T07:07:37.726Z,20.70
2019-01-02T07:08:37.691Z,14.80
2019-01-02T07:09:37.683Z,19.00
2019-01-02T07:10:37.598Z,17.70
2019-01-02T07:11:37.546Z,16.70
2019-01-02T07:12:37.482Z,19.30
2019-01-02T07:13:37.453Z,16.60
2019-01-02T07:14:37.450Z,20.40
2019-01-02T07:15:37.369Z,20.10
2019-01-02T07:16:37.324Z,18.70
2019-01-02T07:17:37.278Z,18.30
2019-01-02T07:18:37.225Z,19.50
2019-01-02T07:19:37.189Z,19.30
2019-01-02T07:20:37.138Z,22.40
2019-01-02T07:21:37.095Z,21.00
2019-01-02T07:22:37.063Z,17.80
2019-01-02T07:23:37.007Z,19.50
2019-01-02T07:24:36.953Z,20.60
2019-01-02T07:25:36.911Z,18.70
2019-01-02T07:26:36.868Z,16.80
2019-01-02T07:27:36.840Z,21.90
2019-01-02T07:28:36.780Z,17.50
2019-01-02T07:29:36.732Z,18.60
2019-01-02T07:30:36.708Z,17.90
2019-01-02T07:31:36.642Z,15.70
2019-01-02T07:32:36.602Z,17.70
2019-01-02T07:33:36.564Z,17.70
2019-01-02T07:34:36.516Z,19.10
2019-01-02T07:35:36.454Z,19.40
2019-01-02T07:36:36.422Z,18.70
2019-01-02T07:37:36.414Z,18.00
2019-01-02T07:38:36.333Z,19.60
2019-01-02T07:39:36.286Z,20.50
2019-01-02T07:40:36.262Z,17.60
2019-01-02T07:41:36.224Z,17.60
2019-01-02T07:42:36.159Z,18.60
2019-01-02T07:43:36.565Z,20.60
2019-01-02T07:44:36.059Z,18.80
2019-01-02T07:45:36.013Z,19.10
2019-01-02T07:46:35.995Z,18.40
2019-01-02T07:47:35.931Z,17.20
2019-01-02T07:48:35.893Z,18.80
2019-01-02T07:49:35.831Z,20.40
2019-01-02T07:50:35.791Z,20.00
2019-01-02T07:51:35.743Z,20.10
2019-01-02T07:52:35.733Z,16.20
2019-01-02T07:53:35.672Z,19.70
2019-01-02T07:54:35.611Z,19.70
2019-01-02T07:55:35.563Z,17.70
2019-01-02T07:56:35.530Z,17.20
2019-01-02T07:57:35.471Z,20.00
2019-01-02T07:58:35.436Z,17.70
2019-01-02T07:59:35.384Z,20.60
2019-01-02T08:00:35.365Z,15.20
2019-01-02T08:01:35.289Z,20.20
2019-01-02T08:02:35.256Z,18.70
2019-01-02T08:03:35.212Z,17.50
2019-01-02T08:04:35.169Z,17.50
2019-01-02T08:05:35.140Z,19.80
2019-01-02T08:06:35.071Z,20.20
2019-01-02T08:07:35.032Z,23.00
2019-01-02T08:08:34.990Z,18.90
2019-01-02T08:09:34.940Z,20.10
2019-01-02T08:10:34.929Z,25.40
2019-01-02T08:11:34.846Z,16.30
2019-01-02T08:12:34.948Z,17.90
2019-01-02T08:13:34.971Z,20.00
2019-01-02T08:14:34.729Z,21.60
2019-01-02T08:15:34.674Z,18.40
2019-01-02T08:16:34.625Z,20.40
2019-01-02T08:17:34.586Z,14.90
2019-01-02T08:18:34.529Z,18.20
2019-01-02T08:19:34.525Z,18.50
2019-01-02T08:20:34.458Z,22.40
2019-01-02T08:21:34.417Z,24.00
2019-01-02T08:22:34.392Z,17.40
2019-01-02T08:23:34.325Z,20.30
2019-01-02T08:24:34.273Z,18.10
2019-01-02T08:25:34.231Z,21.10
2019-01-02T08:26:34.327Z,19.00
2019-01-02T08:27:34.129Z,18.50
2019-01-02T08:28:34.132Z,18.90
2019-01-02T08:29:34.067Z,16.90
2019-01-02T08:30:34.018Z,20.70
2019-01-02T08:31:33.968Z,17.20
2019-01-02T08:32:34.113Z,20.70
2019-01-02T08:33:34.018Z,17.30
2019-01-02T08:34:38.655Z,19.60
2019-01-02T08:35:34.046Z,19.70
2019-01-02T08:36:34.066Z,17.00
2019-01-02T08:37:33.702Z,18.90
2019-01-02T08:38:34.981Z,14.80
2019-01-02T08:39:34.035Z,16.10
2019-01-02T08:40:33.736Z,15.70
2019-01-02T08:41:33.679Z,17.00
2019-01-02T08:42:33.670Z,18.50
2019-01-02T08:43:33.516Z,18.00
2019-01-02T08:44:33.671Z,19.00
2019-01-02T08:45:33.335Z,15.00
2019-01-02T08:46:33.298Z,14.60
2019-01-02T08:47:33.274Z,18.80
2019-01-02T08:48:33.202Z,16.60
2019-01-02T08:49:33.151Z,18.50
2019-01-02T08:50:33.172Z,18.50
2019-01-02T08:51:33.130Z,16.40
2019-01-02T08:52:33.036Z,16.20
2019-01-02T08:53:32.991Z,13.30
2019-01-02T08:54:32.952Z,17.00
2019-01-02T08:55:32.902Z,15.70
2019-01-02T08:56:32.876Z,15.80
2019-01-02T08:57:32.821Z,19.60
2019-01-02T08:58:32.767Z,19.10
2019-01-02T08:59:32.731Z,17.90
2019-01-02T09:00:32.696Z,19.20
2019-01-02T09:01:32.642Z,19.20
2019-01-02T09:02:32.591Z,14.20
2019-01-02T09:03:32.582Z,19.50
2019-01-02T09:04:37.523Z,19.90
2019-01-02T09:05:32.468Z,15.20
2019-01-02T09:07:25.685Z,16.00
2019-01-02T09:08:25.524Z,15.30
2019-01-02T09:10:18.514Z,14.90
2019-01-02T09:11:18.525Z,16.70
2019-01-02T09:13:11.671Z,16.20
2019-01-02T09:14:11.450Z,16.20
2019-01-02T09:16:04.658Z,17.90
2019-01-02T09:17:04.463Z,18.10
2019-01-02T09:18:57.562Z,14.90
2019-01-02T09:19:57.549Z,13.20
2019-01-02T09:21:50.974Z,18.00
2019-01-02T09:22:50.904Z,15.60
2019-01-02T09:23:50.836Z,14.90
2019-01-02T09:24:50.800Z,16.90
2019-01-02T09:25:50.757Z,13.50
2019-01-02T09:26:50.709Z,13.40
2019-01-02T09:27:50.675Z,18.10
2019-01-02T09:28:50.628Z,15.90
2019-01-02T09:29:50.573Z,12.60
2019-01-02T09:30:50.527Z,13.40
2019-01-02T09:31:50.474Z,13.00
2019-01-02T09:32:50.458Z,15.00
2019-01-02T09:33:52.280Z,13.30
2019-01-02T09:34:50.356Z,11.60
2019-01-02T09:35:50.874Z,15.60
2019-01-02T09:36:50.268Z,13.10
2019-01-02T09:37:50.258Z,13.20
2019-01-02T09:38:50.206Z,17.60
2019-01-02T09:39:50.161Z,11.70
2019-01-02T09:40:50.268Z,15.00
2019-01-02T09:41:50.125Z,9.80
2019-01-02T09:42:50.029Z,13.50
2019-01-02T09:43:50.031Z,11.60
2019-01-02T09:44:49.927Z,11.80
2019-01-02T09:45:49.886Z,11.50
2019-01-02T09:46:49.905Z,12.60
2019-01-02T09:47:49.888Z,12.30
2019-01-02T09:48:49.798Z,11.60
2019-01-02T09:49:49.774Z,10.60
2019-01-02T09:50:49.673Z,12.90
2019-01-02T09:51:49.694Z,11.50
2019-01-02T09:52:49.589Z,13.40
2019-01-02T09:53:49.559Z,13.70
2019-01-02T09:54:49.481Z,14.00
2019-01-02T09:55:49.454Z,11.60
2019-01-02T09:56:49.452Z,12.80
2019-01-02T09:57:49.402Z,15.00
2019-01-02T09:58:49.385Z,7.80
2019-01-02T09:59:49.282Z,9.50
2019-01-02T10:00:49.247Z,12.00
2019-01-02T10:01:49.200Z,11.20
2019-01-02T10:02:49.158Z,8.20
2019-01-02T10:03:49.104Z,8.90
2019-01-02T10:04:49.096Z,9.50
2019-01-02T10:05:49.020Z,10.10
2019-01-02T10:06:49.001Z,11.30
2019-01-02T10:07:48.936Z,12.70
2019-01-02T10:08:48.907Z,9.40
2019-01-02T10:09:48.872Z,11.20
2019-01-02T10:10:48.791Z,8.70
2019-01-02T10:11:48.746Z,11.50
2019-01-02T10:12:48.703Z,10.40
2019-01-02T10:13:48.669Z,12.70
2019-01-02T10:14:48.635Z,12.40
2019-01-02T10:15:48.580Z,10.40
2019-01-02T10:16:48.538Z,10.80
2019-01-02T10:17:48.481Z,10.80
2019-01-02T10:18:48.458Z,10.20
2019-01-02T10:19:48.403Z,12.00
2019-01-02T10:20:48.411Z,9.40
2019-01-02T10:21:48.341Z,12.40
2019-01-02T10:22:48.289Z,9.70
2019-01-02T10:23:48.241Z,8.80
2019-01-02T10:24:48.217Z,14.30
2019-01-02T10:25:48.154Z,13.00
2019-01-02T10:26:48.102Z,10.90
2019-01-02T10:27:48.096Z,8.90
2019-01-02T10:28:48.061Z,11.70
2019-01-02T10:29:47.975Z,9.40
2019-01-02T10:30:47.936Z,10.60
2019-01-02T10:31:47.915Z,11.00
2019-01-02T10:32:47.896Z,9.30
2019-01-02T10:33:47.865Z,10.60
2019-01-02T10:34:47.783Z,8.70
2019-01-02T10:35:47.746Z,8.30
2019-01-02T10:36:47.683Z,9.10
2019-01-02T10:37:47.666Z,9.00
2019-01-02T10:38:47.603Z,11.90
2019-01-02T10:39:47.556Z,12.70
2019-01-02T10:40:47.513Z,9.20
2019-01-02T10:41:47.502Z,10.50
2019-01-02T10:42:47.439Z,12.20
2019-01-02T10:43:47.401Z,9.80
2019-01-02T10:44:47.364Z,7.70
2019-01-02T10:45:47.309Z,8.90
2019-01-02T10:46:47.281Z,8.90
2019-01-02T10:47:47.275Z,8.00
2019-01-02T10:48:47.185Z,9.20
2019-01-02T10:49:47.149Z,10.40
2019-01-02T10:50:47.101Z,8.00
2019-01-02T10:51:47.077Z,8.90
2019-01-02T10:52:47.009Z,8.10
2019-01-02T10:53:46.982Z,10.00
2019-01-02T10:54:46.937Z,9.60
2019-01-02T10:55:46.895Z,10.70
2019-01-02T10:56:46.856Z,12.00
2019-01-02T10:57:46.802Z,7.00
2019-01-02T10:58:46.884Z,7.90
2019-01-02T10:59:46.742Z,10.50
2019-01-02T11:00:46.710Z,9.90
2019-01-02T11:01:46.646Z,8.30
2019-01-02T11:02:46.604Z,10.90
2019-01-02T11:03:46.578Z,8.40
2019-01-02T11:04:46.527Z,8.80
2019-01-02T11:05:46.467Z,8.50
2019-01-02T11:06:46.418Z,10.30
2019-01-02T11:07:46.405Z,10.00
2019-01-02T11:08:46.337Z,11.90
2019-01-02T11:09:46.312Z,9.90
2019-01-02T11:10:46.255Z,12.00
2019-01-02T11:11:46.205Z,12.80
2019-01-02T11:12:46.161Z,6.50
2019-01-02T11:13:46.124Z,10.80
2019-01-02T11:14:46.082Z,10.00
2019-01-02T11:15:46.027Z,6.10
2019-01-02T11:16:45.997Z,6.60
2019-01-02T11:17:45.944Z,5.40
2019-01-02T11:18:45.907Z,7.00
2019-01-02T11:19:45.863Z,9.80
2019-01-02T11:20:45.814Z,20.60
2019-01-02T11:21:45.807Z,4.60
2019-01-02T11:22:45.712Z,4.20
2019-01-02T11:23:45.688Z,18.40
2019-01-02T11:24:45.696Z,5.70
2019-01-02T11:25:45.577Z,7.10
2019-01-02T11:26:45.541Z,6.40
2019-01-02T11:27:45.563Z,9.10
2019-01-02T11:28:45.595Z,8.80
2019-01-02T11:29:45.439Z,7.10
2019-01-02T11:30:45.384Z,5.90
2019-01-02T11:31:45.324Z,7.10
2019-01-02T11:32:45.316Z,6.80
2019-01-02T11:33:45.245Z,5.00
2019-01-02T11:34:45.175Z,8.70
2019-01-02T11:35:45.169Z,8.80
2019-01-02T11:36:45.093Z,8.80
2019-01-02T11:37:45.037Z,7.00
2019-01-02T11:38:45.003Z,7.90
2019-01-02T11:39:44.952Z,5.40
2019-01-02T11:40:44.990Z,10.10
2019-01-02T11:41:44.869Z,10.70
2019-01-02T11:42:44.807Z,7.90
2019-01-02T11:43:44.805Z,7.50
2019-01-02T11:44:44.735Z,5.70
2019-01-02T11:45:44.696Z,6.20
2019-01-02T11:46:44.647Z,6.70
2019-01-02T11:47:44.588Z,5.70
2019-01-02T11:48:44.554Z,5.50
2019-01-02T11:49:44.495Z,5.50
2019-01-02T11:50:44.450Z,8.00
2019-01-02T11:51:44.490Z,7.20
2019-01-02T11:52:44.367Z,6.70
2019-01-02T11:53:44.310Z,5.60
2019-01-02T11:54:44.262Z,7.00
2019-01-02T11:55:44.234Z,8.10
2019-01-02T11:56:44.193Z,9.00
2019-01-02T11:57:44.145Z,8.80
2019-01-02T11:58:49.791Z,10.30
2019-01-02T11:59:44.081Z,6.00
2019-01-02T12:00:44.006Z,8.00
2019-01-02T12:01:43.950Z,6.40
2019-01-02T12:02:43.915Z,7.30
2019-01-02T12:03:43.904Z,7.90
2019-01-02T12:04:43.829Z,7.20
2019-01-02T12:05:43.895Z,5.90
2019-01-02T12:06:43.781Z,5.00
2019-01-02T12:07:43.705Z,7.20
2019-01-02T12:08:43.661Z,6.10
2019-01-02T12:09:43.620Z,6.60
2019-01-02T12:10:43.573Z,7.20
2019-01-02T12:11:43.524Z,5.40
2019-01-02T12:12:43.483Z,6.00
2019-01-02T12:13:43.432Z,6.50
2019-01-02T12:14:43.384Z,6.90
2019-01-02T12:15:43.359Z,6.50
2019-01-02T12:16:43.314Z,5.50
2019-01-02T12:17:43.256Z,5.80
2019-01-02T12:18:43.233Z,7.80
2019-01-02T12:19:43.192Z,7.50
2019-01-02T12:20:43.142Z,5.60
2019-01-02T12:21:43.083Z,6.00
2019-01-02T12:22:43.063Z,5.50
2019-01-02T12:23:43.006Z,9.40
2019-01-02T12:24:42.957Z,5.50
2019-01-02T12:25:42.905Z,6.50
2019-01-02T12:26:42.877Z,7.60
2019-01-02T12:27:42.879Z,7.30
2019-01-02T12:28:42.776Z,6.50
2019-01-02T12:29:42.762Z,6.20
2019-01-02T12:30:42.711Z,7.30
2019-01-02T12:31:42.655Z,10.90
2019-01-02T12:32:42.606Z,8.90
2019-01-02T12:33:42.558Z,7.40
2019-01-02T12:34:42.507Z,5.50
2019-01-02T12:35:42.476Z,5.10
2019-01-02T12:36:42.448Z,7.40
2019-01-02T12:37:42.400Z,7.60
2019-01-02T12:38:42.322Z,6.60
2019-01-02T12:39:42.299Z,8.00
2019-01-02T12:40:42.257Z,7.50
2019-01-02T12:41:42.200Z,6.50
2019-01-02T12:42:42.162Z,7.80
2019-01-02T12:43:42.721Z,8.30
2019-01-02T12:44:42.095Z,10.50
2019-01-02T12:45:42.035Z,7.80
2019-01-02T12:46:41.989Z,6.50
2019-01-02T12:47:41.949Z,4.90
2019-01-02T12:48:41.907Z,5.60
2019-01-02T12:49:41.846Z,6.20
2019-01-02T12:50:41.810Z,7.20
2019-01-02T12:51:41.790Z,6.40
2019-01-02T12:52:41.736Z,5.00
2019-01-02T12:53:43.836Z,7.30
2019-01-02T12:54:41.675Z,7.50
2019-01-02T12:55:41.587Z,5.20
2019-01-02T12:56:41.542Z,7.00
2019-01-02T12:57:41.499Z,6.80
2019-01-02T12:58:41.448Z,8.70
2019-01-02T12:59:41.403Z,4.80
2019-01-02T13:00:41.365Z,5.00
2019-01-02T13:01:41.316Z,7.10
2019-01-02T13:02:41.270Z,6.40